Time,TemperatureF,DewpointF,PressureIn,WindDirection,WindDirectionDegrees,WindSpeedMPH,WindSpeedGustMPH,Humidity,HourlyPrecipIn,Conditions,Clouds,dailyrainin,SolarRadiationWatts/m^2,SoftwareType,DateUTC
2013-02-11 00:01:00,14.0,10.0,-100.00,SSW,201,6.0,11.0,81,-99.99,,,0.00,0.120000,,2013-02-11 07:01:00,
2013-02-11 00:11:00,14.0,10.0,-100.00,SSW,201,6.0,11.0,81,-99.99,,,0.00,0.120000,,2013-02-11 07:11:00,
2013-02-11 00:41:00,17.0,10.0,-100.00,SSW,197,7.0,9.0,74,-99.99,,,0.00,0.120000,,2013-02-11 07:41:00,
2013-02-11 00:52:00,17.0,10.0,-100.00,SSW,197,7.0,9.0,74,-99.99,,,0.00,0.120000,,2013-02-11 07:52:00,
2013-02-11 01:01:00,17.0,10.0,-100.00,SSW,197,7.0,9.0,74,-99.99,,,0.00,0.120000,,2013-02-11 08:01:00,
2013-02-11 01:11:00,17.0,10.0,-100.00,SSW,197,7.0,9.0,74,-99.99,,,0.00,0.120000,,2013-02-11 08:11:00,
2013-02-11 01:42:00,17.0,10.0,-100.00,South,181,6.0,9.0,73,-99.99,,,0.00,0.120000,,2013-02-11 08:42:00,
2013-02-11 01:52:00,17.0,10.0,-100.00,South,181,6.0,9.0,73,-99.99,,,0.00,0.120000,,2013-02-11 08:52:00,
2013-02-11 02:01:00,17.0,10.0,-100.00,South,181,6.0,9.0,73,-99.99,,,0.00,0.120000,,2013-02-11 09:01:00,
2013-02-11 02:12:00,17.0,10.0,-100.00,South,181,6.0,9.0,73,-99.99,,,0.00,0.120000,,2013-02-11 09:12:00,
2013-02-11 02:41:00,17.0,9.0,-100.00,SW,221,7.0,10.0,71,-99.99,,,0.00,0.120000,,2013-02-11 09:41:00,
2013-02-11 02:52:00,17.0,9.0,-100.00,SW,221,7.0,10.0,71,-99.99,,,0.00,0.120000,,2013-02-11 09:52:00,
2013-02-11 03:01:00,17.0,9.0,-100.00,SW,221,7.0,10.0,71,-99.99,,,0.00,0.120000,,2013-02-11 10:01:00,
2013-02-11 03:41:00,15.0,8.0,-100.00,WSW,237,3.0,5.0,75,-99.99,,,0.00,0.120000,,2013-02-11 10:41:00,
2013-02-11 03:52:00,15.0,8.0,-100.00,WSW,237,3.0,5.0,75,-99.99,,,0.00,0.120000,,2013-02-11 10:52:00,
2013-02-11 04:01:00,15.0,8.0,-100.00,WSW,237,3.0,5.0,75,-99.99,,,0.00,0.120000,,2013-02-11 11:01:00,
2013-02-11 04:11:00,15.0,8.0,-100.00,WSW,237,3.0,5.0,75,-99.99,,,0.00,0.120000,,2013-02-11 11:11:00,
2013-02-11 04:42:00,13.0,8.0,-100.00,NNW,344,2.0,4.0,78,-99.99,,,0.00,0.120000,,2013-02-11 11:42:00,
2013-02-11 04:52:00,13.0,8.0,-100.00,NNW,344,2.0,4.0,78,-99.99,,,0.00,0.120000,,2013-02-11 11:52:00,
2013-02-11 05:02:00,13.0,8.0,-100.00,NNW,344,2.0,4.0,78,-99.99,,,0.00,0.120000,,2013-02-11 12:02:00,
2013-02-11 05:12:00,13.0,8.0,-100.00,NNW,344,2.0,4.0,78,-99.99,,,0.00,0.120000,,2013-02-11 12:12:00,
2013-02-11 05:42:00,13.0,9.0,-100.00,NNE,25,2.0,4.0,83,-99.99,,,0.00,0.120000,,2013-02-11 12:42:00,
2013-02-11 05:52:00,13.0,9.0,-100.00,NNE,25,2.0,4.0,83,-99.99,,,0.00,0.120000,,2013-02-11 12:52:00,
2013-02-11 06:01:00,13.0,9.0,-100.00,NNE,25,2.0,4.0,83,-99.99,,,0.00,0.120000,,2013-02-11 13:01:00,
2013-02-11 06:11:00,13.0,9.0,-100.00,NNE,25,2.0,4.0,83,-99.99,,,0.00,0.120000,,2013-02-11 13:11:00,
2013-02-11 06:42:00,13.0,8.0,-100.00,SE,125,1.0,4.0,81,-99.99,,,-99.99,0.120000,,2013-02-11 13:42:00,
2013-02-11 06:52:00,13.0,8.0,-100.00,SE,125,1.0,4.0,81,-99.99,,,-99.99,0.120000,,2013-02-11 13:52:00,
2013-02-11 07:01:00,13.0,8.0,-100.00,SE,125,1.0,4.0,81,-99.99,,,-99.99,0.120000,,2013-02-11 14:01:00,
2013-02-11 07:11:00,13.0,8.0,-100.00,SE,125,1.0,4.0,81,-99.99,,,-99.99,0.120000,,2013-02-11 14:11:00,
2013-02-11 07:42:00,11.0,7.0,-100.00,ESE,122,2.0,4.0,82,-99.99,,,0.00,0.230000,,2013-02-11 14:42:00,
2013-02-11 07:53:00,11.0,7.0,-100.00,ESE,122,2.0,4.0,82,-99.99,,,0.00,0.230000,,2013-02-11 14:53:00,
2013-02-11 08:01:00,11.0,7.0,-100.00,ESE,122,2.0,4.0,82,-99.99,,,0.00,0.230000,,2013-02-11 15:01:00,
2013-02-11 08:11:00,11.0,7.0,-100.00,ESE,122,2.0,4.0,82,-99.99,,,0.00,0.230000,,2013-02-11 15:11:00,
2013-02-11 08:42:00,12.0,7.0,-100.00,NE,42,2.0,3.0,82,-99.99,,,0.00,23.480000,,2013-02-11 15:42:00,
2013-02-11 08:52:00,12.0,7.0,-100.00,NE,42,2.0,3.0,82,-99.99,,,0.00,23.480000,,2013-02-11 15:52:00,
2013-02-11 09:01:00,12.0,7.0,-100.00,NE,42,2.0,3.0,82,-99.99,,,0.00,23.480000,,2013-02-11 16:01:00,
2013-02-11 09:11:00,12.0,7.0,-100.00,NE,42,2.0,3.0,82,-99.99,,,0.00,23.480000,,2013-02-11 16:11:00,
2013-02-11 09:42:00,16.0,10.0,-100.00,SW,228,3.0,5.0,75,-99.99,,,0.00,259.290009,,2013-02-11 16:42:00,
2013-02-11 09:52:00,16.0,10.0,-100.00,SW,228,3.0,5.0,75,-99.99,,,0.00,259.290009,,2013-02-11 16:52:00,
2013-02-11 10:01:00,16.0,10.0,-100.00,SW,228,3.0,5.0,75,-99.99,,,0.00,259.290009,,2013-02-11 17:01:00,
2013-02-11 10:11:00,16.0,10.0,-100.00,SW,228,3.0,5.0,75,-99.99,,,0.00,259.290009,,2013-02-11 17:11:00,
2013-02-11 10:42:00,20.0,12.0,-100.00,SSW,212,5.0,7.0,69,-99.99,,,0.00,260.329987,,2013-02-11 17:42:00,
2013-02-11 10:53:00,20.0,12.0,-100.00,SSW,212,5.0,7.0,69,-99.99,,,0.00,260.329987,,2013-02-11 17:53:00,
2013-02-11 11:01:00,20.0,12.0,-100.00,SSW,212,5.0,7.0,69,-99.99,,,0.00,260.329987,,2013-02-11 18:01:00,
2013-02-11 11:11:00,20.0,12.0,-100.00,SSW,212,5.0,7.0,69,-99.99,,,0.00,260.329987,,2013-02-11 18:11:00,
2013-02-11 11:42:00,25.0,11.0,-100.00,South,180,2.0,5.0,55,-99.99,,,-99.99,495.450012,,2013-02-11 18:42:00,
2013-02-11 11:53:00,25.0,11.0,-100.00,South,180,2.0,5.0,55,-99.99,,,-99.99,495.450012,,2013-02-11 18:53:00,
2013-02-11 12:01:00,25.0,11.0,-100.00,South,180,2.0,5.0,55,-99.99,,,-99.99,495.450012,,2013-02-11 19:01:00,
2013-02-11 12:11:00,25.0,11.0,-100.00,South,180,2.0,5.0,55,-99.99,,,-99.99,495.450012,,2013-02-11 19:11:00,
2013-02-11 13:41:00,29.0,15.0,-100.00,NE,40,6.0,17.0,56,-99.99,,,-99.99,531.130005,,2013-02-11 20:41:00,
2013-02-11 13:52:00,29.0,15.0,-100.00,NE,40,6.0,17.0,56,-99.99,,,-99.99,531.130005,,2013-02-11 20:52:00,
2013-02-11 14:02:00,29.0,15.0,-100.00,NE,40,6.0,17.0,56,-99.99,,,-99.99,531.130005,,2013-02-11 21:02:00,
2013-02-11 14:11:00,29.0,15.0,-100.00,NE,40,6.0,17.0,56,-99.99,,,-99.99,531.130005,,2013-02-11 21:11:00,
2013-02-11 14:41:00,30.0,17.0,-100.00,NNE,22,7.0,12.0,58,-99.99,,,0.00,386.320007,,2013-02-11 21:41:00,
2013-02-11 14:52:00,30.0,17.0,-100.00,NNE,22,7.0,12.0,58,-99.99,,,0.00,386.320007,,2013-02-11 21:52:00,
2013-02-11 15:01:00,30.0,17.0,-100.00,NNE,22,7.0,12.0,58,-99.99,,,0.00,386.320007,,2013-02-11 22:01:00,
2013-02-11 15:11:00,30.0,17.0,-100.00,NNE,22,7.0,12.0,58,-99.99,,,0.00,386.320007,,2013-02-11 22:11:00,
2013-02-11 15:42:00,31.0,18.0,-100.00,NE,37,7.0,14.0,57,-99.99,,,0.00,385.500000,,2013-02-11 22:42:00,
2013-02-11 15:52:00,31.0,18.0,-100.00,NE,37,7.0,14.0,57,-99.99,,,0.00,385.500000,,2013-02-11 22:52:00,
2013-02-11 16:01:00,31.0,18.0,-100.00,NE,37,7.0,14.0,57,-99.99,,,0.00,385.500000,,2013-02-11 23:01:00,
2013-02-11 16:11:00,31.0,18.0,-100.00,NE,37,7.0,14.0,57,-99.99,,,0.00,385.500000,,2013-02-11 23:11:00,
2013-02-11 16:41:00,31.0,19.0,-100.00,ENE,77,5.0,12.0,59,-99.99,,,0.00,250.690002,,2013-02-11 23:41:00,
2013-02-11 16:52:00,31.0,19.0,-100.00,ENE,77,5.0,12.0,59,-99.99,,,0.00,250.690002,,2013-02-11 23:52:00,
2013-02-11 17:01:00,31.0,19.0,-100.00,ENE,77,5.0,12.0,59,-99.99,,,0.00,250.690002,,2013-02-12 00:01:00,
2013-02-11 17:11:00,31.0,19.0,-100.00,ENE,77,5.0,12.0,59,-99.99,,,0.00,250.690002,,2013-02-12 00:11:00,
2013-02-11 17:42:00,31.0,18.0,-100.00,North,3,1.0,4.0,58,-99.99,,,0.00,105.410004,,2013-02-12 00:42:00,
2013-02-11 17:52:00,31.0,18.0,-100.00,North,3,1.0,4.0,58,-99.99,,,0.00,105.410004,,2013-02-12 00:52:00,
2013-02-11 18:01:00,31.0,18.0,-100.00,North,3,1.0,4.0,58,-99.99,,,0.00,105.410004,,2013-02-12 01:01:00,
2013-02-11 18:11:00,31.0,18.0,-100.00,North,3,1.0,4.0,58,-99.99,,,0.00,105.410004,,2013-02-12 01:11:00,
2013-02-11 18:42:00,23.0,18.0,-100.00,WNW,283,4.0,6.0,81,-99.99,,,0.00,0.460000,,2013-02-12 01:42:00,
2013-02-11 18:52:00,23.0,18.0,-100.00,WNW,283,4.0,6.0,81,-99.99,,,0.00,0.460000,,2013-02-12 01:52:00,
2013-02-11 19:01:00,23.0,18.0,-100.00,WNW,283,4.0,6.0,81,-99.99,,,0.00,0.460000,,2013-02-12 02:01:00,
2013-02-11 19:11:00,23.0,18.0,-100.00,WNW,283,4.0,6.0,81,-99.99,,,0.00,0.460000,,2013-02-12 02:11:00,
2013-02-11 19:41:00,22.0,18.0,-100.00,WSW,258,2.0,3.0,87,-99.99,,,0.00,0.120000,,2013-02-12 02:41:00,
2013-02-11 19:52:00,22.0,18.0,-100.00,WSW,258,2.0,3.0,87,-99.99,,,0.00,0.120000,,2013-02-12 02:52:00,
2013-02-11 20:02:00,22.0,18.0,-100.00,WSW,258,2.0,3.0,87,-99.99,,,0.00,0.120000,,2013-02-12 03:02:00,
2013-02-11 20:11:00,22.0,18.0,-100.00,WSW,258,2.0,3.0,87,-99.99,,,0.00,0.120000,,2013-02-12 03:11:00,
2013-02-11 20:41:00,18.0,14.0,-100.00,SW,230,5.0,7.0,85,-99.99,,,0.00,0.120000,,2013-02-12 03:41:00,
2013-02-11 20:52:00,18.0,14.0,-100.00,SW,230,5.0,7.0,85,-99.99,,,0.00,0.120000,,2013-02-12 03:52:00,
2013-02-11 21:01:00,18.0,14.0,-100.00,SW,230,5.0,7.0,85,-99.99,,,0.00,0.120000,,2013-02-12 04:01:00,
2013-02-11 21:11:00,18.0,14.0,-100.00,SW,230,5.0,7.0,85,-99.99,,,0.00,0.120000,,2013-02-12 04:11:00,
2013-02-11 21:41:00,16.0,13.0,-100.00,SSW,207,3.0,4.0,86,-99.99,,,0.00,0.120000,,2013-02-12 04:41:00,
2013-02-11 21:52:00,16.0,13.0,-100.00,SSW,207,3.0,4.0,86,-99.99,,,0.00,0.120000,,2013-02-12 04:52:00,
2013-02-11 22:01:00,16.0,13.0,-100.00,SSW,207,3.0,4.0,86,-99.99,,,0.00,0.120000,,2013-02-12 05:01:00,
2013-02-11 22:42:00,14.0,11.0,-100.00,South,171,5.0,7.0,87,-99.99,,,-99.99,0.120000,,2013-02-12 05:42:00,
2013-02-11 22:52:00,14.0,11.0,-100.00,South,171,5.0,7.0,87,-99.99,,,-99.99,0.120000,,2013-02-12 05:52:00,
2013-02-11 23:01:00,14.0,11.0,-100.00,South,171,5.0,7.0,87,-99.99,,,-99.99,0.120000,,2013-02-12 06:01:00,
2013-02-11 23:42:00,16.0,13.0,-100.00,SW,219,7.0,9.0,86,-99.99,,,-99.99,0.120000,,2013-02-12 06:42:00,
2013-02-11 23:52:00,16.0,13.0,-100.00,SW,219,7.0,9.0,86,-99.99,,,-99.99,0.120000,,2013-02-12 06:52:00,